createdAt,value
2022-12-04T00:02:08.561Z,0.24
2022-12-04T00:04:34.991Z,0.25
2022-12-04T00:07:01.660Z,0.24
2022-12-04T00:09:28.065Z,0.25
2022-12-04T00:11:54.553Z,0.26
2022-12-04T00:14:20.978Z,0.28
2022-12-04T00:16:47.462Z,0.27
2022-12-04T00:19:13.967Z,0.28
2022-12-04T00:21:40.311Z,0.28
2022-12-04T00:24:07.080Z,0.30
2022-12-04T00:26:33.662Z,0.33
2022-12-04T00:29:00.513Z,0.33
2022-12-04T00:31:29.153Z,0.33
2022-12-04T00:33:55.634Z,0.32
2022-12-04T00:36:24.141Z,0.34
2022-12-04T00:38:51.081Z,0.32
2022-12-04T00:41:21.222Z,0.30
2022-12-04T00:43:47.755Z,0.32
2022-12-04T00:46:14.808Z,0.28
2022-12-04T00:48:42.062Z,0.27
2022-12-04T00:51:11.471Z,0.30
2022-12-04T00:53:38.488Z,0.30
2022-12-04T00:56:07.298Z,0.31
2022-12-04T00:58:33.913Z,0.31
2022-12-04T01:01:09.894Z,0.35
2022-12-04T01:03:36.895Z,0.37
2022-12-04T01:06:04.561Z,0.37
2022-12-04T01:08:31.309Z,0.33
2022-12-04T01:10:57.908Z,0.32
2022-12-04T01:13:25.008Z,0.33
2022-12-04T01:15:51.677Z,0.30
2022-12-04T01:18:18.297Z,0.29
2022-12-04T01:20:51.650Z,0.29
2022-12-04T01:23:19.479Z,0.30
2022-12-04T01:25:58.530Z,0.33
2022-12-04T01:28:25.513Z,0.34
2022-12-04T01:31:03.955Z,0.35
2022-12-04T01:33:31.597Z,0.35
2022-12-04T01:35:59.940Z,0.32
2022-12-04T01:38:27.205Z,0.30
2022-12-04T01:40:55.065Z,0.30
2022-12-04T01:43:22.814Z,0.29
2022-12-04T01:45:51.033Z,0.30
2022-12-04T01:48:33.115Z,0.30
2022-12-04T01:51:31.534Z,0.28
2022-12-04T01:54:02.444Z,0.26
2022-12-04T01:56:46.578Z,0.26
2022-12-04T01:59:17.303Z,0.28
2022-12-04T02:01:52.603Z,0.28
2022-12-04T02:04:19.591Z,0.29
2022-12-04T02:06:46.015Z,0.29
2022-12-04T02:09:12.473Z,0.30
2022-12-04T02:12:05.058Z,0.33
2022-12-04T02:14:55.011Z,0.30
2022-12-04T02:17:33.532Z,0.32
2022-12-04T02:20:22.872Z,0.35
2022-12-04T02:23:19.336Z,0.35
2022-12-04T02:26:16.681Z,0.34
2022-12-04T02:28:56.169Z,0.35
2022-12-04T02:31:31.103Z,0.32
2022-12-04T02:34:04.264Z,0.30
2022-12-04T02:36:38.113Z,0.31
2022-12-04T02:39:23.141Z,0.32
2022-12-04T02:42:15.667Z,0.31
2022-12-04T02:44:49.619Z,0.31
2022-12-04T02:47:21.638Z,0.29
2022-12-04T02:49:58.756Z,0.31
2022-12-04T02:52:43.952Z,0.33
2022-12-04T02:55:16.650Z,0.32
2022-12-04T02:57:48.544Z,0.32
2022-12-04T03:00:15.986Z,0.29
2022-12-04T03:02:59.361Z,0.31
2022-12-04T03:05:36.693Z,0.32
2022-12-04T03:08:10.469Z,0.32
2022-12-04T03:10:45.723Z,0.32
2022-12-04T03:13:19.264Z,0.35
2022-12-04T03:15:58.017Z,0.37
2022-12-04T03:18:33.841Z,0.34
2022-12-04T03:21:06.469Z,0.32
2022-12-04T03:23:44.351Z,0.34
2022-12-04T03:26:22.673Z,0.35
2022-12-04T03:29:21.517Z,0.31
2022-12-04T03:32:04.458Z,0.29
2022-12-04T03:34:38.418Z,0.28
2022-12-04T03:37:13.628Z,0.27
2022-12-04T03:39:47.583Z,0.30
2022-12-04T03:42:22.060Z,0.28
2022-12-04T03:44:57.980Z,0.28
2022-12-04T03:47:37.120Z,0.29
2022-12-04T03:50:13.592Z,0.31
2022-12-04T03:52:51.344Z,0.31
2022-12-04T03:55:26.619Z,0.30
2022-12-04T03:57:59.385Z,0.28
2022-12-04T04:00:25.873Z,0.27
2022-12-04T04:02:58.379Z,0.29
2022-12-04T04:05:26.942Z,0.29
2022-12-04T04:08:20.599Z,0.29
2022-12-04T04:10:49.006Z,0.27
2022-12-04T04:13:39.892Z,0.28
2022-12-04T04:16:29.172Z,0.29
2022-12-04T04:19:17.091Z,0.29
2022-12-04T04:22:04.449Z,0.29
2022-12-04T04:24:40.203Z,0.32
2022-12-04T04:27:06.624Z,0.31
2022-12-04T04:29:33.164Z,0.32
2022-12-04T04:32:07.232Z,0.34
2022-12-04T04:35:15.688Z,0.32
2022-12-04T04:38:03.982Z,0.31
2022-12-04T04:41:00.264Z,0.32
2022-12-04T04:44:00.981Z,0.33
2022-12-04T04:46:34.839Z,0.34
2022-12-04T04:49:04.202Z,0.34
2022-12-04T04:51:33.568Z,0.36
2022-12-04T04:54:04.474Z,0.35
2022-12-04T04:56:31.116Z,0.34
2022-12-04T04:58:57.566Z,0.33
2022-12-04T05:01:27.830Z,0.36
2022-12-04T05:03:54.350Z,0.32
2022-12-04T05:06:20.777Z,0.31
2022-12-04T05:08:49.179Z,0.31
2022-12-04T05:11:17.106Z,0.31
2022-12-04T05:13:43.494Z,0.30
2022-12-04T05:16:14.810Z,0.32
2022-12-04T05:19:01.724Z,0.32
2022-12-04T05:21:28.165Z,0.30
2022-12-04T05:23:54.585Z,0.31
2022-12-04T05:26:20.970Z,0.30
2022-12-04T05:28:47.399Z,0.27
2022-12-04T05:31:13.797Z,0.25
2022-12-04T05:33:40.279Z,0.25
2022-12-04T05:36:09.481Z,0.26
2022-12-04T05:38:36.569Z,0.25
2022-12-04T05:41:05.071Z,0.26
2022-12-04T05:43:32.315Z,0.27
2022-12-04T05:46:03.520Z,0.30
2022-12-04T05:48:29.940Z,0.28
2022-12-04T05:50:56.628Z,0.27
2022-12-04T05:53:23.185Z,0.27
2022-12-04T05:56:00.988Z,0.29
2022-12-04T05:58:28.323Z,0.28
2022-12-04T06:00:55.040Z,0.28
2022-12-04T06:03:22.066Z,0.31
2022-12-04T06:05:48.618Z,0.29
2022-12-04T06:08:15.479Z,0.30
2022-12-04T06:10:42.339Z,0.28
2022-12-04T06:13:08.869Z,0.32
2022-12-04T06:15:39.919Z,0.33
2022-12-04T06:18:06.613Z,0.32
2022-12-04T06:20:33.471Z,0.29
2022-12-04T06:22:59.945Z,0.28
2022-12-04T06:25:26.618Z,0.30
2022-12-04T06:27:53.015Z,0.31
2022-12-04T06:30:19.443Z,0.29
2022-12-04T06:32:45.883Z,0.30
2022-12-04T06:35:12.389Z,0.32
2022-12-04T06:37:38.749Z,0.31
2022-12-04T06:40:05.926Z,0.33
2022-12-04T06:42:32.317Z,0.30
2022-12-04T06:44:58.716Z,0.32
2022-12-04T06:47:25.128Z,0.34
2022-12-04T06:49:51.588Z,0.34
2022-12-04T06:52:18.432Z,0.34
2022-12-04T06:54:44.782Z,0.35
2022-12-04T06:57:11.195Z,0.36
2022-12-04T06:59:37.625Z,0.36
2022-12-04T07:02:04.052Z,0.34
2022-12-04T07:04:30.465Z,0.33
2022-12-04T07:06:56.867Z,0.32
2022-12-04T07:09:23.488Z,0.32
2022-12-04T07:11:49.913Z,0.33
2022-12-04T07:14:16.441Z,0.34
2022-12-04T07:16:43.218Z,0.34
2022-12-04T07:19:11.777Z,0.33
2022-12-04T07:21:38.292Z,0.33
2022-12-04T07:24:05.007Z,0.31
2022-12-04T07:26:31.456Z,0.32
2022-12-04T07:29:00.346Z,0.32
2022-12-04T07:31:28.776Z,0.36
2022-12-04T07:33:56.494Z,0.34
2022-12-04T07:36:24.435Z,0.34
2022-12-04T07:38:51.269Z,0.32
2022-12-04T07:41:18.720Z,0.34
2022-12-04T07:43:45.283Z,0.36
2022-12-04T07:46:32.051Z,0.38
2022-12-04T07:48:59.344Z,0.37
2022-12-04T07:51:28.496Z,0.37
2022-12-04T07:54:02.023Z,0.37
2022-12-04T07:56:29.883Z,0.37
2022-12-04T07:58:56.364Z,0.37
2022-12-04T08:01:24.119Z,0.36
2022-12-04T08:03:53.039Z,0.39
2022-12-04T08:06:21.681Z,0.39
2022-12-04T08:08:49.145Z,0.42
2022-12-04T08:11:18.787Z,0.45
2022-12-04T08:13:45.803Z,0.45
2022-12-04T08:16:12.977Z,0.43
2022-12-04T08:18:40.320Z,0.42
2022-12-04T08:21:15.568Z,0.46
2022-12-04T08:23:43.723Z,0.47
2022-12-04T08:26:11.797Z,0.46
2022-12-04T08:28:40.500Z,0.44
2022-12-04T08:31:21.899Z,0.47
2022-12-04T08:33:50.169Z,0.50
2022-12-04T08:36:19.579Z,0.49
2022-12-04T08:38:46.550Z,0.49
2022-12-04T08:41:15.105Z,0.52
2022-12-04T08:43:41.824Z,0.52
2022-12-04T08:46:11.182Z,0.52
2022-12-04T08:48:38.480Z,0.52
2022-12-04T08:51:07.674Z,0.52
2022-12-04T08:53:36.441Z,0.54
2022-12-04T08:56:04.360Z,0.54
2022-12-04T08:58:30.838Z,0.53
2022-12-04T09:01:03.961Z,0.55
2022-12-04T09:03:31.199Z,0.54
2022-12-04T09:06:02.409Z,0.53
2022-12-04T09:08:28.990Z,0.52
2022-12-04T09:10:55.513Z,0.53
2022-12-04T09:13:21.934Z,0.56
2022-12-04T09:15:48.404Z,0.58
2022-12-04T09:18:14.825Z,0.58
2022-12-04T09:20:41.230Z,0.58
2022-12-04T09:23:07.555Z,0.61
2022-12-04T09:25:37.806Z,0.63
2022-12-04T09:28:04.683Z,0.59
2022-12-04T09:30:31.128Z,0.61
2022-12-04T09:32:57.546Z,0.62
2022-12-04T09:35:24.055Z,0.62
2022-12-04T09:37:50.428Z,0.64
2022-12-04T09:40:50.516Z,0.67
2022-12-04T09:43:33.191Z,0.67
2022-12-04T09:46:07.876Z,0.64
2022-12-04T09:48:37.523Z,0.63
2022-12-04T09:51:06.844Z,0.66
2022-12-04T09:53:43.804Z,0.67
2022-12-04T09:56:15.028Z,0.65
2022-12-04T09:58:52.951Z,0.65
2022-12-04T10:01:24.532Z,0.65
2022-12-04T10:03:52.821Z,0.65
2022-12-04T10:06:22.453Z,0.67
2022-12-04T10:09:24.560Z,0.71
2022-12-04T10:12:02.623Z,0.75
2022-12-04T10:14:44.436Z,0.72
2022-12-04T10:17:42.130Z,0.70
2022-12-04T10:20:50.783Z,0.67
2022-12-04T10:23:39.803Z,0.68
2022-12-04T10:26:14.428Z,0.71
2022-12-04T10:28:55.433Z,0.70
2022-12-04T10:31:23.355Z,0.69
2022-12-04T10:34:02.709Z,0.69
2022-12-04T10:36:33.614Z,0.70
2022-12-04T10:39:21.967Z,0.70
2022-12-04T10:41:59.908Z,0.72
2022-12-04T10:44:26.779Z,0.71
2022-12-04T10:47:00.458Z,0.74
2022-12-04T10:49:34.162Z,0.76
2022-12-04T10:52:01.214Z,0.75
2022-12-04T10:54:32.862Z,0.77
2022-12-04T10:57:01.736Z,0.78
2022-12-04T10:59:30.215Z,0.78
2022-12-04T11:02:10.214Z,0.79
2022-12-04T11:04:36.986Z,0.77
2022-12-04T11:07:09.345Z,0.81
2022-12-04T11:09:36.721Z,0.77
2022-12-04T11:12:18.037Z,0.76
2022-12-04T11:14:47.156Z,0.77
2022-12-04T11:17:19.139Z,0.83
2022-12-04T11:19:45.737Z,0.85
2022-12-04T11:22:19.634Z,0.85
2022-12-04T11:24:52.738Z,0.85
2022-12-04T11:27:31.909Z,0.82
2022-12-04T11:30:01.953Z,0.80
2022-12-04T11:32:33.066Z,0.85
2022-12-04T11:35:20.803Z,0.87
2022-12-04T11:38:15.322Z,0.87
2022-12-04T11:40:55.229Z,0.86
2022-12-04T11:43:25.624Z,0.84
2022-12-04T11:46:03.677Z,0.88
2022-12-04T11:48:32.151Z,0.89
2022-12-04T11:51:05.978Z,0.90
2022-12-04T11:53:41.605Z,0.92
2022-12-04T11:56:35.409Z,0.92
2022-12-04T11:59:13.933Z,0.94
2022-12-04T12:02:05.502Z,0.98
2022-12-04T12:04:56.618Z,0.96
2022-12-04T12:07:32.576Z,0.96
2022-12-04T12:10:22.861Z,0.98
2022-12-04T12:12:58.396Z,0.96
2022-12-04T12:16:02.845Z,0.97
2022-12-04T12:18:35.053Z,0.98
2022-12-04T12:21:16.054Z,1.01
2022-12-04T12:24:09.653Z,1.06
2022-12-04T12:27:01.052Z,1.06
2022-12-04T12:29:39.703Z,1.04
2022-12-04T12:32:31.215Z,1.06
2022-12-04T12:34:58.411Z,1.06
2022-12-04T12:37:41.430Z,1.08
2022-12-04T12:40:28.572Z,1.11
2022-12-04T12:43:05.743Z,1.11
2022-12-04T12:45:46.858Z,1.13
2022-12-04T12:48:23.040Z,1.12
2022-12-04T12:51:14.900Z,1.11
2022-12-04T12:53:48.564Z,1.16
2022-12-04T12:56:18.661Z,1.16
2022-12-04T12:58:57.405Z,1.17
2022-12-04T13:01:36.112Z,1.20
2022-12-04T13:04:07.699Z,1.21
2022-12-04T13:06:39.105Z,1.20
2022-12-04T13:09:21.732Z,1.18
2022-12-04T13:11:52.315Z,1.18
2022-12-04T13:14:18.928Z,1.18
2022-12-04T13:17:00.085Z,1.19
2022-12-04T13:19:31.059Z,1.20
2022-12-04T13:22:16.099Z,1.18
2022-12-04T13:25:04.044Z,1.19
2022-12-04T13:28:10.175Z,1.21
2022-12-04T13:31:01.068Z,1.23
2022-12-04T13:33:54.991Z,1.25
2022-12-04T13:36:46.215Z,1.25
2022-12-04T13:39:56.685Z,1.22
2022-12-04T13:42:28.912Z,1.19
2022-12-04T13:45:03.020Z,1.20
2022-12-04T13:47:32.756Z,1.21
2022-12-04T13:50:28.247Z,1.21
2022-12-04T13:52:55.439Z,1.20
2022-12-04T13:55:26.963Z,1.24
2022-12-04T13:57:59.929Z,1.24
2022-12-04T14:00:28.712Z,1.20
2022-12-04T14:02:58.855Z,1.19
2022-12-04T14:05:41.479Z,1.19
2022-12-04T14:08:24.123Z,1.19
2022-12-04T14:11:09.047Z,1.19
2022-12-04T14:13:45.548Z,1.18
2022-12-04T14:16:21.691Z,1.20
2022-12-04T14:18:57.850Z,1.19
2022-12-04T14:21:24.974Z,1.17
2022-12-04T14:23:52.954Z,1.15
2022-12-04T14:26:49.044Z,1.17
2022-12-04T14:29:41.712Z,1.19
2022-12-04T14:32:23.070Z,1.17
2022-12-04T14:34:50.186Z,1.14
2022-12-04T14:37:40.153Z,1.16
2022-12-04T14:40:07.677Z,1.13
2022-12-04T14:42:37.995Z,1.17
2022-12-04T14:45:17.325Z,1.19
2022-12-04T14:47:52.844Z,1.16
2022-12-04T14:50:40.609Z,1.17
2022-12-04T14:53:26.962Z,1.18
2022-12-04T14:56:16.173Z,1.20
2022-12-04T14:58:43.728Z,1.19
2022-12-04T15:01:26.884Z,1.20
2022-12-04T15:03:58.022Z,1.20
2022-12-04T15:06:27.869Z,1.22
2022-12-04T15:09:20.798Z,1.23
2022-12-04T15:12:10.709Z,1.21
2022-12-04T15:14:42.520Z,1.21
2022-12-04T15:17:13.559Z,1.23
2022-12-04T15:19:40.321Z,1.19
2022-12-04T15:22:28.674Z,1.21
2022-12-04T15:24:55.887Z,1.21
2022-12-04T15:27:30.563Z,1.22
2022-12-04T15:30:01.591Z,1.23
2022-12-04T15:32:29.029Z,1.22
2022-12-04T15:35:01.608Z,1.22
2022-12-04T15:37:30.932Z,1.22
2022-12-04T15:39:59.076Z,1.23
2022-12-04T15:42:28.465Z,1.23
2022-12-04T15:45:10.047Z,1.25
2022-12-04T15:47:42.522Z,1.26
2022-12-04T15:50:17.909Z,1.26
2022-12-04T15:52:56.867Z,1.28
2022-12-04T15:55:25.447Z,1.28
2022-12-04T15:57:56.412Z,1.29
2022-12-04T16:00:34.032Z,1.31
2022-12-04T16:03:00.988Z,1.31
2022-12-04T16:05:35.012Z,1.33
2022-12-04T16:08:22.818Z,1.32
2022-12-04T16:11:07.942Z,1.35
2022-12-04T16:13:38.750Z,1.37
2022-12-04T16:16:08.166Z,1.37
2022-12-04T16:18:34.770Z,1.37
2022-12-04T16:21:01.239Z,1.37
2022-12-04T16:23:27.921Z,1.39
2022-12-04T16:25:54.519Z,1.41
2022-12-04T16:28:21.109Z,1.42
2022-12-04T16:30:47.767Z,1.42
2022-12-04T16:33:15.848Z,1.42
2022-12-04T16:35:42.484Z,1.45
2022-12-04T16:38:16.799Z,1.47
2022-12-04T16:40:45.351Z,1.45
2022-12-04T16:43:13.955Z,1.46
2022-12-04T16:45:46.097Z,1.48
2022-12-04T16:48:13.445Z,1.49
2022-12-04T16:50:40.161Z,1.50
2022-12-04T16:53:06.637Z,1.52
2022-12-04T16:55:38.656Z,1.53
2022-12-04T16:58:06.421Z,1.53
2022-12-04T17:00:32.851Z,1.54
2022-12-04T17:03:01.667Z,1.55
2022-12-04T17:05:29.868Z,1.57
2022-12-04T17:07:56.492Z,1.59
2022-12-04T17:10:24.456Z,1.59
2022-12-04T17:12:54.987Z,1.61
2022-12-04T17:15:21.851Z,1.61
2022-12-04T17:17:48.676Z,1.63
2022-12-04T17:20:20.703Z,1.65
2022-12-04T17:22:47.898Z,1.65
2022-12-04T17:25:15.614Z,1.65
2022-12-04T17:27:42.023Z,1.66
2022-12-04T17:30:09.552Z,1.67
2022-12-04T17:32:35.946Z,1.68
2022-12-04T17:35:04.649Z,1.69
2022-12-04T17:37:32.524Z,1.71
2022-12-04T17:39:59.023Z,1.71
2022-12-04T17:42:25.685Z,1.71
2022-12-04T17:44:52.375Z,1.73
2022-12-04T17:47:19.088Z,1.73
2022-12-04T17:49:45.466Z,1.73
2022-12-04T17:52:11.872Z,1.75
2022-12-04T17:54:38.269Z,1.76
2022-12-04T17:57:04.799Z,1.77
2022-12-04T17:59:31.226Z,1.78
2022-12-04T18:01:57.720Z,1.79
2022-12-04T18:04:24.924Z,1.79
2022-12-04T18:06:52.699Z,1.81
2022-12-04T18:09:19.480Z,1.81
2022-12-04T18:11:47.350Z,1.82
2022-12-04T18:14:16.856Z,1.83
2022-12-04T18:16:46.573Z,1.84
2022-12-04T18:19:14.252Z,1.84
2022-12-04T18:21:41.033Z,1.84
2022-12-04T18:24:07.787Z,1.86
2022-12-04T18:26:40.021Z,1.86
2022-12-04T18:29:07.916Z,1.85
2022-12-04T18:31:34.576Z,1.86
2022-12-04T18:34:04.811Z,1.86
2022-12-04T18:36:32.123Z,1.86
2022-12-04T18:39:06.549Z,1.87
2022-12-04T18:41:33.441Z,1.84
2022-12-04T18:43:59.957Z,1.83
2022-12-04T18:46:26.712Z,1.83
2022-12-04T18:48:54.915Z,1.84
2022-12-04T18:51:25.304Z,1.86
2022-12-04T18:53:55.249Z,1.86
2022-12-04T18:56:22.224Z,1.84
2022-12-04T18:58:49.014Z,1.84
2022-12-04T19:01:20.272Z,1.83
2022-12-04T19:03:47.622Z,1.84
2022-12-04T19:06:14.952Z,1.82
2022-12-04T19:08:43.549Z,1.82
2022-12-04T19:11:13.301Z,1.83
2022-12-04T19:13:39.887Z,1.85
2022-12-04T19:16:12.301Z,1.84
2022-12-04T19:18:38.849Z,1.84
2022-12-04T19:21:06.295Z,1.85
2022-12-04T19:23:32.736Z,1.86
2022-12-04T19:26:00.442Z,1.85
2022-12-04T19:28:27.811Z,1.87
2022-12-04T19:30:55.371Z,1.87
2022-12-04T19:33:22.891Z,1.87
2022-12-04T19:36:03.102Z,1.89
2022-12-04T19:38:30.366Z,1.88
2022-12-04T19:41:03.787Z,1.89
2022-12-04T19:43:31.073Z,1.90
2022-12-04T19:45:57.596Z,1.90
2022-12-04T19:48:24.142Z,1.90
2022-12-04T19:50:50.541Z,1.92
2022-12-04T19:53:16.986Z,1.93
2022-12-04T19:55:43.473Z,1.93
2022-12-04T19:58:09.889Z,1.95
2022-12-04T20:00:36.600Z,1.96
2022-12-04T20:03:03.048Z,1.97
2022-12-04T20:05:29.414Z,1.99
2022-12-04T20:07:55.822Z,1.98
2022-12-04T20:10:22.298Z,1.98
2022-12-04T20:12:48.678Z,1.99
2022-12-04T20:15:15.031Z,2.00
2022-12-04T20:17:41.716Z,2.00
2022-12-04T20:20:09.081Z,2.02
2022-12-04T20:22:36.520Z,2.03
2022-12-04T20:25:03.106Z,2.04
2022-12-04T20:27:29.529Z,2.07
2022-12-04T20:29:56.223Z,2.06
2022-12-04T20:32:22.842Z,2.07
2022-12-04T20:34:49.221Z,2.07
2022-12-04T20:37:15.611Z,2.08
2022-12-04T20:39:42.157Z,2.08
2022-12-04T20:42:08.544Z,2.09
2022-12-04T20:44:34.989Z,2.11
2022-12-04T20:47:01.360Z,2.11
2022-12-04T20:49:27.773Z,2.12
2022-12-04T20:51:54.433Z,2.12
2022-12-04T20:54:22.498Z,2.13
2022-12-04T20:56:51.960Z,2.13
2022-12-04T20:59:19.633Z,2.15
2022-12-04T21:01:46.979Z,2.16
2022-12-04T21:04:13.670Z,2.15
2022-12-04T21:06:41.165Z,2.16
2022-12-04T21:09:13.410Z,2.18
2022-12-04T21:11:45.940Z,2.19
2022-12-04T21:14:39.652Z,2.20
2022-12-04T21:17:09.243Z,2.21
2022-12-04T21:19:36.428Z,2.21
2022-12-04T21:22:05.864Z,2.21
2022-12-04T21:24:38.040Z,2.22
2022-12-04T21:27:09.675Z,2.24
2022-12-04T21:29:37.133Z,2.24
2022-12-04T21:32:05.463Z,2.25
2022-12-04T21:34:32.692Z,2.27
2022-12-04T21:36:59.174Z,2.27
2022-12-04T21:39:25.754Z,2.28
2022-12-04T21:42:11.390Z,2.28
2022-12-04T21:44:38.235Z,2.29
2022-12-04T21:47:04.642Z,2.29
2022-12-04T21:49:31.037Z,2.32
2022-12-04T21:51:58.673Z,2.32
2022-12-04T21:54:26.764Z,2.33
2022-12-04T21:56:53.249Z,2.33
2022-12-04T21:59:19.651Z,2.34
2022-12-04T22:01:46.191Z,2.35
2022-12-04T22:04:12.874Z,2.35
2022-12-04T22:06:39.316Z,2.37
2022-12-04T22:09:10.979Z,2.39
2022-12-04T22:11:38.534Z,2.39
2022-12-04T22:14:05.046Z,2.40
2022-12-04T22:16:34.591Z,2.41
2022-12-04T22:19:03.781Z,2.41
2022-12-04T22:21:30.263Z,2.43
2022-12-04T22:23:58.719Z,2.44
2022-12-04T22:26:26.889Z,2.45
2022-12-04T22:28:53.343Z,2.45
2022-12-04T22:31:21.839Z,2.47
2022-12-04T22:33:50.092Z,2.47
2022-12-04T22:36:19.646Z,2.48
2022-12-04T22:39:08.179Z,2.50
2022-12-04T22:41:32.752Z,2.51
2022-12-04T22:43:59.165Z,2.51
2022-12-04T22:46:25.777Z,2.54
2022-12-04T22:48:52.210Z,2.54
2022-12-04T22:51:21.091Z,2.55
2022-12-04T22:53:50.128Z,2.56
2022-12-04T22:56:22.053Z,2.58
2022-12-04T22:58:48.899Z,2.58
2022-12-04T23:01:20.246Z,2.60
2022-12-04T23:03:47.732Z,2.60
2022-12-04T23:06:15.626Z,2.62
2022-12-04T23:08:43.340Z,2.63
2022-12-04T23:11:13.215Z,2.64
2022-12-04T23:13:40.075Z,2.65
2022-12-04T23:16:09.685Z,2.67
2022-12-04T23:18:37.173Z,2.67
2022-12-04T23:21:11.489Z,2.70
2022-12-04T23:23:39.591Z,2.69
2022-12-04T23:26:09.065Z,2.70
2022-12-04T23:28:35.895Z,2.72
2022-12-04T23:31:03.049Z,2.73
2022-12-04T23:33:29.737Z,2.74
2022-12-04T23:35:58.553Z,2.74
2022-12-04T23:38:26.883Z,2.76
2022-12-04T23:41:04.682Z,2.76
2022-12-04T23:43:31.314Z,2.77
2022-12-04T23:45:57.829Z,2.78
2022-12-04T23:48:25.239Z,2.77
2022-12-04T23:50:52.467Z,2.77
2022-12-04T23:53:19.076Z,2.78
2022-12-04T23:55:55.852Z,2.81
2022-12-04T23:58:22.325Z,2.81
